createdAt,value
2018-01-23T00:00:29.818Z,1013.23
2018-01-23T00:01:29.791Z,1013.27
2018-01-23T00:02:29.761Z,1013.29
2018-01-23T00:03:29.730Z,1013.28
2018-01-23T00:04:29.694Z,1013.33
2018-01-23T00:05:29.674Z,1013.33
2018-01-23T00:06:29.639Z,1013.31
2018-01-23T00:07:29.608Z,1013.32
2018-01-23T00:08:29.585Z,1013.31
2018-01-23T00:09:29.555Z,1013.29
2018-01-23T00:10:29.511Z,1013.32
2018-01-23T00:11:29.489Z,1013.31
2018-01-23T00:12:29.455Z,1013.27
2018-01-23T00:13:29.428Z,1013.27
2018-01-23T00:14:29.398Z,1013.30
2018-01-23T00:15:29.364Z,1013.29
2018-01-23T00:16:29.337Z,1013.27
2018-01-23T00:17:29.311Z,1013.32
2018-01-23T00:18:29.271Z,1013.34
2018-01-23T00:19:29.246Z,1013.36
2018-01-23T00:20:29.223Z,1013.36
2018-01-23T00:21:29.190Z,1013.37
2018-01-23T00:22:29.158Z,1013.39
2018-01-23T00:23:29.130Z,1013.39
2018-01-23T00:24:29.097Z,1013.33
2018-01-23T00:25:29.066Z,1013.40
2018-01-23T00:26:29.035Z,1013.48
2018-01-23T00:27:29.008Z,1013.41
2018-01-23T00:28:28.970Z,1013.43
2018-01-23T00:29:28.938Z,1013.47
2018-01-23T00:30:28.910Z,1013.36
2018-01-23T00:31:28.880Z,1013.37
2018-01-23T00:32:28.855Z,1013.37
2018-01-23T00:33:28.817Z,1013.39
2018-01-23T00:34:28.785Z,1013.36
2018-01-23T00:35:28.760Z,1013.38
2018-01-23T00:36:28.737Z,1013.38
2018-01-23T00:37:28.701Z,1013.36
2018-01-23T00:38:28.669Z,1013.42
2018-01-23T00:39:28.673Z,1013.45
2018-01-23T00:40:28.612Z,1013.45
2018-01-23T00:41:28.586Z,1013.43
2018-01-23T00:42:28.552Z,1013.43
2018-01-23T00:43:28.522Z,1013.45
2018-01-23T00:44:28.484Z,1013.49
2018-01-23T00:45:30.143Z,1013.55
2018-01-23T00:46:28.424Z,1013.49
2018-01-23T00:47:30.144Z,1013.54
2018-01-23T00:48:28.364Z,1013.53
2018-01-23T00:49:28.344Z,1013.55
2018-01-23T00:50:28.307Z,1013.56
2018-01-23T00:51:28.284Z,1013.55
2018-01-23T00:52:28.247Z,1013.51
2018-01-23T00:53:28.225Z,1013.59
2018-01-23T00:54:28.192Z,1013.55
2018-01-23T00:55:28.175Z,1013.59
2018-01-23T00:56:28.125Z,1013.62
2018-01-23T00:57:28.099Z,1013.65
2018-01-23T00:58:28.073Z,1013.63
2018-01-23T00:59:28.036Z,1013.68
2018-01-23T01:00:28.000Z,1013.68
2018-01-23T01:01:29.649Z,1013.72
2018-01-23T01:02:27.952Z,1013.73
2018-01-23T01:03:27.911Z,1013.71
2018-01-23T01:04:27.887Z,1013.73
2018-01-23T01:05:27.852Z,1013.71
2018-01-23T01:06:27.825Z,1013.75
2018-01-23T01:07:30.647Z,1013.77
2018-01-23T01:08:27.766Z,1013.68
2018-01-23T01:09:27.738Z,1013.69
2018-01-23T01:10:27.702Z,1013.71
2018-01-23T01:11:27.678Z,1013.70
2018-01-23T01:12:27.642Z,1013.72
2018-01-23T01:13:27.615Z,1013.77
2018-01-23T01:14:27.587Z,1013.78
2018-01-23T01:15:27.554Z,1013.76
2018-01-23T01:16:27.532Z,1013.82
2018-01-23T01:17:27.491Z,1013.78
2018-01-23T01:18:27.463Z,1013.77
2018-01-23T01:19:27.430Z,1013.80
2018-01-23T01:20:27.407Z,1013.80
2018-01-23T01:21:27.372Z,1013.79
2018-01-23T01:22:27.338Z,1013.82
2018-01-23T01:23:27.314Z,1013.83
2018-01-23T01:24:27.283Z,1013.82
2018-01-23T01:25:27.254Z,1013.84
2018-01-23T01:26:27.232Z,1013.77
2018-01-23T01:27:27.195Z,1013.82
2018-01-23T01:28:27.163Z,1013.87
2018-01-23T01:29:27.133Z,1013.89
2018-01-23T01:30:27.110Z,1013.89
2018-01-23T01:31:28.648Z,1013.88
2018-01-23T01:32:27.041Z,1013.92
2018-01-23T01:33:27.072Z,1013.93
2018-01-23T01:34:26.980Z,1013.92
2018-01-23T01:35:26.948Z,1013.92
2018-01-23T01:36:26.926Z,1013.92
2018-01-23T01:37:26.888Z,1013.93
2018-01-23T01:38:26.863Z,1013.93
2018-01-23T01:39:26.834Z,1013.93
2018-01-23T01:40:26.802Z,1013.94
2018-01-23T01:41:26.777Z,1013.97
2018-01-23T01:42:26.744Z,1013.99
2018-01-23T01:43:26.714Z,1013.94
2018-01-23T01:44:26.686Z,1013.97
2018-01-23T01:45:26.662Z,1014.01
2018-01-23T01:46:26.624Z,1014.01
2018-01-23T01:47:26.598Z,1014.00
2018-01-23T01:48:26.560Z,1014.03
2018-01-23T01:49:26.529Z,1014.07
2018-01-23T01:50:26.500Z,1014.06
2018-01-23T01:51:26.470Z,1014.06
2018-01-23T01:52:28.149Z,1014.02
2018-01-23T01:53:26.409Z,1014.10
2018-01-23T01:54:26.380Z,1014.15
2018-01-23T01:55:26.361Z,1014.13
2018-01-23T01:56:26.325Z,1014.11
2018-01-23T01:57:26.329Z,1014.17
2018-01-23T01:58:26.272Z,1014.15
2018-01-23T01:59:26.235Z,1014.16
2018-01-23T02:00:26.209Z,1014.17
2018-01-23T02:01:26.174Z,1014.16
2018-01-23T02:02:26.146Z,1014.19
2018-01-23T02:03:26.116Z,1014.25
2018-01-23T02:04:26.080Z,1014.28
2018-01-23T02:05:26.052Z,1014.21
2018-01-23T02:06:26.022Z,1014.24
2018-01-23T02:07:25.989Z,1014.26
2018-01-23T02:08:25.960Z,1014.23
2018-01-23T02:09:27.660Z,1014.29
2018-01-23T02:10:25.913Z,1014.29
2018-01-23T02:11:27.654Z,1014.25
2018-01-23T02:12:25.846Z,1014.29
2018-01-23T02:13:25.815Z,1014.32
2018-01-23T02:14:25.786Z,1014.32
2018-01-23T02:15:25.755Z,1014.34
2018-01-23T02:16:25.726Z,1014.37
2018-01-23T02:17:25.705Z,1014.36
2018-01-23T02:18:25.663Z,1014.32
2018-01-23T02:19:25.633Z,1014.40
2018-01-23T02:20:25.604Z,1014.36
2018-01-23T02:21:25.573Z,1014.41
2018-01-23T02:22:25.543Z,1014.42
2018-01-23T02:23:25.517Z,1014.38
2018-01-23T02:24:25.484Z,1014.44
2018-01-23T02:25:25.458Z,1014.40
2018-01-23T02:26:25.427Z,1014.46
2018-01-23T02:27:25.396Z,1014.41
2018-01-23T02:28:25.360Z,1014.45
2018-01-23T02:29:27.112Z,1014.47
2018-01-23T02:30:25.301Z,1014.45
2018-01-23T02:31:25.273Z,1014.49
2018-01-23T02:32:25.239Z,1014.50
2018-01-23T02:33:27.220Z,1014.48
2018-01-23T02:34:25.185Z,1014.48
2018-01-23T02:35:25.157Z,1014.48
2018-01-23T02:36:25.123Z,1014.47
2018-01-23T02:37:25.098Z,1014.47
2018-01-23T02:38:25.063Z,1014.48
2018-01-23T02:39:25.034Z,1014.45
2018-01-23T02:40:25.005Z,1014.46
2018-01-23T02:41:24.977Z,1014.44
2018-01-23T02:42:26.668Z,1014.53
2018-01-23T02:43:24.919Z,1014.43
2018-01-23T02:44:26.656Z,1014.44
2018-01-23T02:45:24.852Z,1014.45
2018-01-23T02:46:24.824Z,1014.46
2018-01-23T02:47:24.790Z,1014.45
2018-01-23T02:48:24.766Z,1014.47
2018-01-23T02:49:24.738Z,1014.47
2018-01-23T02:50:24.700Z,1014.45
2018-01-23T02:51:24.683Z,1014.45
2018-01-23T02:52:24.644Z,1014.47
2018-01-23T02:53:24.619Z,1014.47
2018-01-23T02:54:24.584Z,1014.45
2018-01-23T02:55:24.567Z,1014.42
2018-01-23T02:56:24.528Z,1014.49
2018-01-23T02:57:24.499Z,1014.48
2018-01-23T02:58:26.160Z,1014.48
2018-01-23T02:59:24.429Z,1014.52
2018-01-23T03:00:24.399Z,1014.54
2018-01-23T03:01:24.370Z,1014.54
2018-01-23T03:02:24.339Z,1014.57
2018-01-23T03:03:24.325Z,1014.58
2018-01-23T03:04:24.284Z,1014.58
2018-01-23T03:05:24.253Z,1014.57
2018-01-23T03:06:24.219Z,1014.60
2018-01-23T03:07:24.197Z,1014.61
2018-01-23T03:08:24.170Z,1014.63
2018-01-23T03:09:24.141Z,1014.65
2018-01-23T03:10:24.108Z,1014.66
2018-01-23T03:11:24.075Z,1014.68
2018-01-23T03:12:24.043Z,1014.69
2018-01-23T03:13:24.013Z,1014.73
2018-01-23T03:14:23.989Z,1014.76
2018-01-23T03:15:23.952Z,1014.76
2018-01-23T03:16:23.918Z,1014.80
2018-01-23T03:17:23.890Z,1014.80
2018-01-23T03:18:23.860Z,1014.82
2018-01-23T03:19:23.832Z,1014.77
2018-01-23T03:20:23.799Z,1014.78
2018-01-23T03:21:23.771Z,1014.85
2018-01-23T03:22:23.736Z,1014.78
2018-01-23T03:23:23.719Z,1014.79
2018-01-23T03:24:23.689Z,1014.81
2018-01-23T03:25:23.656Z,1014.82
2018-01-23T03:26:23.622Z,1014.80
2018-01-23T03:27:23.592Z,1014.77
2018-01-23T03:28:23.558Z,1014.83
2018-01-23T03:29:25.173Z,1014.86
2018-01-23T03:30:23.554Z,1014.85
2018-01-23T03:31:23.474Z,1014.85
2018-01-23T03:32:23.446Z,1014.81
2018-01-23T03:33:23.429Z,1014.83
2018-01-23T03:34:23.381Z,1014.84
2018-01-23T03:35:23.354Z,1014.85
2018-01-23T03:36:23.322Z,1014.90
2018-01-23T03:37:23.295Z,1014.93
2018-01-23T03:38:23.262Z,1014.93
2018-01-23T03:39:23.235Z,1014.92
2018-01-23T03:40:23.198Z,1014.97
2018-01-23T03:41:23.170Z,1014.96
2018-01-23T03:42:23.142Z,1014.99
2018-01-23T03:43:23.107Z,1014.97
2018-01-23T03:44:23.075Z,1015.02
2018-01-23T03:45:23.050Z,1015.00
2018-01-23T03:46:23.018Z,1015.02
2018-01-23T03:47:22.998Z,1015.01
2018-01-23T03:48:22.962Z,1015.00
2018-01-23T03:49:22.933Z,1015.06
2018-01-23T03:50:25.666Z,1015.05
2018-01-23T03:51:22.875Z,1015.02
2018-01-23T03:52:22.845Z,1015.04
2018-01-23T03:53:22.817Z,1015.07
2018-01-23T03:54:22.790Z,1015.03
2018-01-23T03:55:25.664Z,1015.04
2018-01-23T03:56:22.725Z,1015.00
2018-01-23T03:57:22.690Z,1015.05
2018-01-23T03:58:22.660Z,1015.03
2018-01-23T03:59:22.630Z,1015.04
2018-01-23T04:00:22.599Z,1015.04
2018-01-23T04:01:22.573Z,1015.05
2018-01-23T04:02:22.542Z,1015.08
2018-01-23T04:03:22.555Z,1015.02
2018-01-23T04:04:22.483Z,1015.08
2018-01-23T04:05:22.452Z,1015.05
2018-01-23T04:06:22.423Z,1015.11
2018-01-23T04:07:22.395Z,1015.11
2018-01-23T04:08:22.363Z,1015.09
2018-01-23T04:09:22.333Z,1015.13
2018-01-23T04:10:22.311Z,1015.11
2018-01-23T04:11:22.276Z,1015.16
2018-01-23T04:12:22.243Z,1015.17
2018-01-23T04:13:22.221Z,1015.17
2018-01-23T04:14:22.180Z,1015.10
2018-01-23T04:15:22.152Z,1015.13
2018-01-23T04:16:22.123Z,1015.14
2018-01-23T04:17:22.089Z,1015.14
2018-01-23T04:18:22.060Z,1015.19
2018-01-23T04:19:22.035Z,1015.14
2018-01-23T04:20:22.014Z,1015.20
2018-01-23T04:21:21.984Z,1015.21
2018-01-23T04:22:21.944Z,1015.23
2018-01-23T04:23:21.918Z,1015.21
2018-01-23T04:24:21.972Z,1015.20
2018-01-23T04:25:21.855Z,1015.25
2018-01-23T04:26:21.825Z,1015.21
2018-01-23T04:27:21.789Z,1015.26
2018-01-23T04:28:21.761Z,1015.24
2018-01-23T04:29:21.733Z,1015.26
2018-01-23T04:30:21.701Z,1015.29
2018-01-23T04:31:21.675Z,1015.30
2018-01-23T04:32:21.652Z,1015.27
2018-01-23T04:33:21.618Z,1015.28
2018-01-23T04:34:21.586Z,1015.33
2018-01-23T04:35:21.551Z,1015.29
2018-01-23T04:36:21.523Z,1015.32
2018-01-23T04:37:21.500Z,1015.31
2018-01-23T04:38:21.463Z,1015.30
2018-01-23T04:39:21.437Z,1015.31
2018-01-23T04:40:21.406Z,1015.35
2018-01-23T04:41:21.374Z,1015.39
2018-01-23T04:42:23.170Z,1015.39
2018-01-23T04:43:21.320Z,1015.38
2018-01-23T04:44:21.304Z,1015.43
2018-01-23T04:45:21.270Z,1015.39
2018-01-23T04:46:21.235Z,1015.41
2018-01-23T04:47:21.203Z,1015.43
2018-01-23T04:48:21.170Z,1015.40
2018-01-23T04:49:21.140Z,1015.41
2018-01-23T04:50:21.108Z,1015.40
2018-01-23T04:51:21.074Z,1015.37
2018-01-23T04:52:21.048Z,1015.43
2018-01-23T04:53:21.020Z,1015.38
2018-01-23T04:54:20.990Z,1015.40
2018-01-23T04:55:20.956Z,1015.39
2018-01-23T04:56:20.927Z,1015.42
2018-01-23T04:57:20.900Z,1015.37
2018-01-23T04:58:20.864Z,1015.45
2018-01-23T04:59:20.846Z,1015.45
2018-01-23T05:00:20.808Z,1015.44
2018-01-23T05:01:20.784Z,1015.41
2018-01-23T05:02:20.750Z,1015.38
2018-01-23T05:03:22.673Z,1015.38
2018-01-23T05:04:20.700Z,1015.45
2018-01-23T05:05:20.661Z,1015.38
2018-01-23T05:06:20.635Z,1015.39
2018-01-23T05:07:20.600Z,1015.41
2018-01-23T05:08:20.571Z,1015.46
2018-01-23T05:09:20.542Z,1015.48
2018-01-23T05:10:20.515Z,1015.47
2018-01-23T05:11:20.484Z,1015.45
2018-01-23T05:12:20.448Z,1015.45
2018-01-23T05:13:20.424Z,1015.46
2018-01-23T05:14:20.388Z,1015.47
2018-01-23T05:15:20.365Z,1015.49
2018-01-23T05:16:20.336Z,1015.52
2018-01-23T05:17:20.307Z,1015.49
2018-01-23T05:18:22.186Z,1015.49
2018-01-23T05:19:20.252Z,1015.47
2018-01-23T05:20:20.217Z,1015.45
2018-01-23T05:21:20.200Z,1015.49
2018-01-23T05:22:22.676Z,1015.50
2018-01-23T05:23:20.124Z,1015.53
2018-01-23T05:24:20.097Z,1015.51
2018-01-23T05:25:20.060Z,1015.55
2018-01-23T05:26:20.059Z,1015.54
2018-01-23T05:27:20.003Z,1015.54
2018-01-23T05:28:19.969Z,1015.50
2018-01-23T05:29:22.677Z,1015.60
2018-01-23T05:30:19.912Z,1015.60
2018-01-23T05:31:19.886Z,1015.62
2018-01-23T05:32:19.863Z,1015.66
2018-01-23T05:33:19.826Z,1015.73
2018-01-23T05:34:19.799Z,1015.72
2018-01-23T05:35:19.777Z,1015.72
2018-01-23T05:36:19.734Z,1015.75
2018-01-23T05:37:19.701Z,1015.67
2018-01-23T05:38:19.672Z,1015.76
2018-01-23T05:39:19.645Z,1015.76
2018-01-23T05:40:19.616Z,1015.82
2018-01-23T05:41:19.591Z,1015.76
2018-01-23T05:42:19.560Z,1015.78
2018-01-23T05:43:19.527Z,1015.81
2018-01-23T05:44:19.524Z,1015.78
2018-01-23T05:45:19.471Z,1015.86
2018-01-23T05:46:19.438Z,1015.84
2018-01-23T05:47:19.408Z,1015.85
2018-01-23T05:48:19.378Z,1015.88
2018-01-23T05:49:22.180Z,1015.85
2018-01-23T05:50:19.316Z,1015.87
2018-01-23T05:51:22.178Z,1015.89
2018-01-23T05:52:19.256Z,1015.86
2018-01-23T05:53:19.228Z,1015.89
2018-01-23T05:54:19.204Z,1015.93
2018-01-23T05:55:19.166Z,1015.89
2018-01-23T05:56:19.146Z,1015.94
2018-01-23T05:57:19.114Z,1015.92
2018-01-23T05:58:19.083Z,1015.90
2018-01-23T05:59:19.048Z,1015.90
2018-01-23T06:00:19.018Z,1015.92
2018-01-23T06:01:18.992Z,1015.91
2018-01-23T06:02:20.680Z,1015.93
2018-01-23T06:03:18.925Z,1015.86
2018-01-23T06:04:18.899Z,1015.85
2018-01-23T06:05:18.866Z,1015.89
2018-01-23T06:06:18.837Z,1015.87
2018-01-23T06:07:18.808Z,1015.85
2018-01-23T06:08:18.779Z,1015.91
2018-01-23T06:09:18.746Z,1015.96
2018-01-23T06:10:18.713Z,1015.88
2018-01-23T06:11:18.686Z,1015.96
2018-01-23T06:12:18.664Z,1015.92
2018-01-23T06:13:18.626Z,1015.95
2018-01-23T06:14:18.607Z,1015.97
2018-01-23T06:15:18.623Z,1015.94
2018-01-23T06:16:18.544Z,1015.95
2018-01-23T06:17:18.516Z,1015.99
2018-01-23T06:18:18.483Z,1015.98
2018-01-23T06:19:18.442Z,1016.03
2018-01-23T06:20:18.416Z,1015.97
2018-01-23T06:21:18.389Z,1016.03
2018-01-23T06:22:18.353Z,1016.05
2018-01-23T06:23:18.328Z,1016.02
2018-01-23T06:24:18.300Z,1016.05
2018-01-23T06:25:18.267Z,1016.09
2018-01-23T06:26:18.245Z,1016.06
2018-01-23T06:27:18.213Z,1016.10
2018-01-23T06:28:18.184Z,1016.12
2018-01-23T06:29:18.149Z,1016.11
2018-01-23T06:30:18.119Z,1016.14
2018-01-23T06:31:18.088Z,1016.09
2018-01-23T06:32:18.064Z,1016.06
2018-01-23T06:33:18.029Z,1016.10
2018-01-23T06:34:17.999Z,1016.10
2018-01-23T06:35:17.964Z,1016.16
2018-01-23T06:36:17.938Z,1016.09
2018-01-23T06:37:17.913Z,1016.05
2018-01-23T06:38:17.873Z,1016.04
2018-01-23T06:39:17.848Z,1016.07
2018-01-23T06:40:17.839Z,1016.03
2018-01-23T06:41:17.797Z,1016.05
2018-01-23T06:42:17.756Z,1016.06
2018-01-23T06:43:17.737Z,1016.06
2018-01-23T06:44:17.701Z,1016.10
2018-01-23T06:45:17.665Z,1016.11
2018-01-23T06:46:17.633Z,1016.14
2018-01-23T06:47:17.605Z,1016.13
2018-01-23T06:48:17.576Z,1016.16
2018-01-23T06:49:17.545Z,1016.14
2018-01-23T06:50:18.514Z,1016.20
2018-01-23T06:51:17.552Z,1016.18
2018-01-23T06:52:17.558Z,1016.17
2018-01-23T06:53:17.486Z,1016.17
2018-01-23T06:54:17.482Z,1016.16
2018-01-23T06:55:17.724Z,1016.20
2018-01-23T06:56:17.451Z,1016.17
2018-01-23T06:57:17.433Z,1016.11
2018-01-23T06:58:17.346Z,1016.18
2018-01-23T06:59:17.388Z,1016.18
2018-01-23T07:00:17.302Z,1016.24
2018-01-23T07:01:17.215Z,1016.19
2018-01-23T07:02:17.154Z,1016.19
2018-01-23T07:03:17.130Z,1016.18
2018-01-23T07:04:17.098Z,1016.20
2018-01-23T07:05:17.068Z,1016.22
2018-01-23T07:06:17.034Z,1016.21
2018-01-23T07:07:17.015Z,1016.19
2018-01-23T07:08:16.980Z,1016.21
2018-01-23T07:09:16.949Z,1016.23
2018-01-23T07:10:16.918Z,1016.15
2018-01-23T07:11:16.894Z,1016.25
2018-01-23T07:12:16.907Z,1016.21
2018-01-23T07:13:16.836Z,1016.19
2018-01-23T07:14:16.806Z,1016.25
2018-01-23T07:15:16.796Z,1016.21
2018-01-23T07:16:16.738Z,1016.22
2018-01-23T07:17:16.705Z,1016.27
2018-01-23T07:18:16.679Z,1016.22
2018-01-23T07:19:16.647Z,1016.25
2018-01-23T07:20:16.615Z,1016.22
2018-01-23T07:21:16.602Z,1016.27
2018-01-23T07:22:16.574Z,1016.28
2018-01-23T07:23:16.535Z,1016.27
2018-01-23T07:24:16.500Z,1016.28
2018-01-23T07:25:16.474Z,1016.29
2018-01-23T07:26:16.446Z,1016.29
2018-01-23T07:27:20.201Z,1016.31
2018-01-23T07:28:16.383Z,1016.34
2018-01-23T07:29:18.239Z,1016.34
2018-01-23T07:30:16.352Z,1016.34
2018-01-23T07:31:16.310Z,1016.34
2018-01-23T07:32:16.268Z,1016.42
2018-01-23T07:33:18.323Z,1016.40
2018-01-23T07:34:16.209Z,1016.38
2018-01-23T07:35:16.169Z,1016.40
2018-01-23T07:36:16.143Z,1016.41
2018-01-23T07:37:16.110Z,1016.43
2018-01-23T07:38:16.090Z,1016.38
2018-01-23T07:39:16.072Z,1016.42
2018-01-23T07:40:16.074Z,1016.43
2018-01-23T07:41:15.995Z,1016.44
2018-01-23T07:42:15.963Z,1016.46
2018-01-23T07:43:15.962Z,1016.44
2018-01-23T07:44:15.960Z,1016.50
2018-01-23T07:45:15.874Z,1016.52
2018-01-23T07:46:15.850Z,1016.54
2018-01-23T07:47:15.814Z,1016.55
2018-01-23T07:48:15.785Z,1016.54
2018-01-23T07:49:15.754Z,1016.51
2018-01-23T07:50:17.694Z,1016.54
2018-01-23T07:51:15.695Z,1016.56
2018-01-23T07:52:15.670Z,1016.56
2018-01-23T07:53:17.198Z,1016.61
2018-01-23T07:54:15.603Z,1016.58
2018-01-23T07:55:15.577Z,1016.61
2018-01-23T07:56:15.543Z,1016.61
2018-01-23T07:57:17.192Z,1016.63
2018-01-23T07:58:15.484Z,1016.64
2018-01-23T07:59:15.452Z,1016.62
2018-01-23T08:00:15.426Z,1016.61
2018-01-23T08:01:15.397Z,1016.64
2018-01-23T08:02:15.361Z,1016.65
2018-01-23T08:03:15.336Z,1016.68
2018-01-23T08:04:15.307Z,1016.67
2018-01-23T08:05:15.278Z,1016.64
2018-01-23T08:06:18.195Z,1016.63
2018-01-23T08:07:15.217Z,1016.62
2018-01-23T08:08:15.186Z,1016.58
2018-01-23T08:09:15.163Z,1016.58
2018-01-23T08:10:17.698Z,1016.59
2018-01-23T08:11:15.095Z,1016.59
2018-01-23T08:12:15.077Z,1016.60
2018-01-23T08:13:15.036Z,1016.58
2018-01-23T08:14:15.008Z,1016.61
2018-01-23T08:15:14.978Z,1016.63
2018-01-23T08:16:14.943Z,1016.58
2018-01-23T08:17:14.918Z,1016.60
2018-01-23T08:18:14.884Z,1016.61
2018-01-23T08:19:14.858Z,1016.62
2018-01-23T08:20:14.839Z,1016.64
2018-01-23T08:21:14.802Z,1016.63
2018-01-23T08:22:14.776Z,1016.61
2018-01-23T08:23:14.740Z,1016.63
2018-01-23T08:24:14.712Z,1016.63
2018-01-23T08:25:14.684Z,1016.63
2018-01-23T08:26:14.651Z,1016.61
2018-01-23T08:27:14.623Z,1016.63
2018-01-23T08:28:14.594Z,1016.58
2018-01-23T08:29:14.565Z,1016.59
2018-01-23T08:30:14.529Z,1016.54
2018-01-23T08:31:14.507Z,1016.52
2018-01-23T08:32:14.472Z,1016.53
2018-01-23T08:33:14.450Z,1016.59
2018-01-23T08:34:14.424Z,1016.58
2018-01-23T08:35:14.387Z,1016.61
2018-01-23T08:36:14.358Z,1016.62
2018-01-23T08:37:16.208Z,1016.57
2018-01-23T08:38:14.302Z,1016.59
2018-01-23T08:39:14.269Z,1016.56
2018-01-23T08:40:14.241Z,1016.56
2018-01-23T08:41:14.210Z,1016.52
2018-01-23T08:42:14.178Z,1016.52
2018-01-23T08:43:14.148Z,1016.50
2018-01-23T08:44:14.129Z,1016.48
2018-01-23T08:45:14.087Z,1016.52
2018-01-23T08:46:14.066Z,1016.52
2018-01-23T08:47:14.035Z,1016.50
2018-01-23T08:48:14.005Z,1016.53
2018-01-23T08:49:13.976Z,1016.52
2018-01-23T08:50:13.941Z,1016.55
2018-01-23T08:51:13.910Z,1016.60
2018-01-23T08:52:13.880Z,1016.57
2018-01-23T08:53:13.896Z,1016.54
2018-01-23T08:54:13.825Z,1016.57
2018-01-23T08:55:13.795Z,1016.53
2018-01-23T08:56:13.765Z,1016.64
2018-01-23T08:57:13.732Z,1016.63
2018-01-23T08:58:13.710Z,1016.61
2018-01-23T08:59:13.682Z,1016.63
2018-01-23T09:00:13.680Z,1016.64
2018-01-23T09:01:13.622Z,1016.66
2018-01-23T09:02:13.589Z,1016.63
2018-01-23T09:03:15.202Z,1016.67
2018-01-23T09:04:13.533Z,1016.73
2018-01-23T09:05:16.202Z,1016.76
2018-01-23T09:06:13.471Z,1016.72
2018-01-23T09:07:13.445Z,1016.72
2018-01-23T09:08:13.408Z,1016.71
2018-01-23T09:09:13.384Z,1016.74
2018-01-23T09:10:13.352Z,1016.75
2018-01-23T09:11:13.326Z,1016.80
2018-01-23T09:12:13.296Z,1016.79
2018-01-23T09:13:13.261Z,1016.77
2018-01-23T09:14:13.243Z,1016.78
2018-01-23T09:15:13.214Z,1016.76
2018-01-23T09:16:13.195Z,1016.74
2018-01-23T09:17:13.152Z,1016.79
2018-01-23T09:18:13.125Z,1016.85
2018-01-23T09:19:13.090Z,1016.81
2018-01-23T09:20:13.080Z,1016.83
2018-01-23T09:21:13.032Z,1016.82
2018-01-23T09:22:13.006Z,1016.78
2018-01-23T09:23:12.977Z,1016.86
2018-01-23T09:24:12.943Z,1016.85
2018-01-23T09:25:12.914Z,1016.85
2018-01-23T09:26:12.885Z,1016.86
2018-01-23T09:27:12.854Z,1016.88
2018-01-23T09:28:12.833Z,1016.89
2018-01-23T09:29:12.804Z,1016.88
2018-01-23T09:30:12.767Z,1016.82
2018-01-23T09:31:12.744Z,1016.90
2018-01-23T09:32:12.715Z,1016.85
2018-01-23T09:33:12.684Z,1016.90
2018-01-23T09:34:12.658Z,1016.93
2018-01-23T09:35:12.623Z,1016.84
2018-01-23T09:36:12.594Z,1016.86
2018-01-23T09:37:12.580Z,1016.96
2018-01-23T09:38:12.542Z,1016.90
2018-01-23T09:39:12.512Z,1016.91
2018-01-23T09:40:12.479Z,1016.90
2018-01-23T09:41:12.448Z,1016.91
2018-01-23T09:42:12.420Z,1016.90
2018-01-23T09:43:12.396Z,1016.90
2018-01-23T09:44:12.360Z,1016.91
2018-01-23T09:45:12.335Z,1016.90
2018-01-23T09:46:12.300Z,1016.93
2018-01-23T09:47:12.277Z,1016.89
2018-01-23T09:48:12.249Z,1016.91
2018-01-23T09:49:12.219Z,1016.88
2018-01-23T09:50:12.188Z,1016.94
2018-01-23T09:51:12.158Z,1016.97
2018-01-23T09:52:12.130Z,1016.98
2018-01-23T09:53:12.176Z,1016.94
2018-01-23T09:54:12.076Z,1016.99
2018-01-23T09:55:12.044Z,1017.00
2018-01-23T09:56:12.012Z,1016.95
2018-01-23T09:57:11.979Z,1016.99
2018-01-23T09:58:11.952Z,1016.95
2018-01-23T09:59:11.923Z,1016.98
2018-01-23T10:00:11.894Z,1017.00
2018-01-23T10:01:11.876Z,1017.04
2018-01-23T10:02:11.839Z,1017.01
2018-01-23T10:03:14.708Z,1017.05
2018-01-23T10:04:11.785Z,1017.04
2018-01-23T10:05:11.756Z,1017.01
2018-01-23T10:06:11.724Z,1017.01
2018-01-23T10:07:11.697Z,1016.98
2018-01-23T10:08:13.209Z,1017.00
2018-01-23T10:09:11.638Z,1016.96
2018-01-23T10:10:11.610Z,1016.98
2018-01-23T10:11:11.579Z,1016.98
2018-01-23T10:12:11.546Z,1016.99
2018-01-23T10:13:11.529Z,1017.02
2018-01-23T10:14:11.503Z,1017.03
2018-01-23T10:15:11.465Z,1017.06
2018-01-23T10:16:11.433Z,1017.02
2018-01-23T10:17:11.405Z,1017.02
2018-01-23T10:18:11.376Z,1017.00
2018-01-23T10:19:11.349Z,1017.08
2018-01-23T10:20:11.328Z,1017.05
2018-01-23T10:21:11.295Z,1017.05
2018-01-23T10:22:11.264Z,1017.11
2018-01-23T10:23:11.241Z,1017.06
2018-01-23T10:24:11.208Z,1017.12
2018-01-23T10:25:11.180Z,1017.09
2018-01-23T10:26:11.152Z,1017.10
2018-01-23T10:27:11.118Z,1017.06
2018-01-23T10:28:11.094Z,1017.08
2018-01-23T10:29:11.074Z,1017.01
2018-01-23T10:30:11.039Z,1017.03
2018-01-23T10:31:11.009Z,1017.08
2018-01-23T10:32:10.979Z,1017.04
2018-01-23T10:33:10.959Z,1017.05
2018-01-23T10:34:10.926Z,1017.14
2018-01-23T10:35:10.897Z,1017.11
2018-01-23T10:36:10.884Z,1017.12
2018-01-23T10:37:10.848Z,1017.16
2018-01-23T10:38:10.815Z,1017.10
2018-01-23T10:39:10.783Z,1017.17
2018-01-23T10:40:10.755Z,1017.09
2018-01-23T10:41:10.738Z,1017.09
2018-01-23T10:42:10.702Z,1017.10
2018-01-23T10:43:10.668Z,1017.05
2018-01-23T10:44:10.644Z,1017.07
2018-01-23T10:45:10.616Z,1017.03
2018-01-23T10:46:10.581Z,1017.02
2018-01-23T10:47:10.561Z,1017.02
2018-01-23T10:48:10.523Z,1017.03
2018-01-23T10:49:10.499Z,1017.01
2018-01-23T10:50:10.469Z,1016.99
2018-01-23T10:51:10.443Z,1017.06
2018-01-23T10:52:10.423Z,1016.93
2018-01-23T10:53:10.391Z,1016.86
2018-01-23T10:54:10.356Z,1016.86
2018-01-23T10:55:10.330Z,1016.82
2018-01-23T10:56:10.298Z,1016.90
2018-01-23T10:57:10.272Z,1016.79
2018-01-23T10:58:10.243Z,1016.83
2018-01-23T10:59:10.223Z,1016.81
2018-01-23T11:00:10.187Z,1016.79
2018-01-23T11:01:10.163Z,1016.80
2018-01-23T11:02:10.133Z,1016.73
2018-01-23T11:03:10.100Z,1016.73
2018-01-23T11:04:10.079Z,1016.78
2018-01-23T11:05:10.052Z,1016.73
2018-01-23T11:06:10.018Z,1016.77
2018-01-23T11:07:09.989Z,1016.79
2018-01-23T11:08:09.955Z,1016.77
2018-01-23T11:09:09.930Z,1016.83
2018-01-23T11:10:09.902Z,1016.83
2018-01-23T11:11:09.870Z,1016.84
2018-01-23T11:12:09.848Z,1016.80
2018-01-23T11:13:09.816Z,1016.79
2018-01-23T11:14:09.788Z,1016.79
2018-01-23T11:15:12.723Z,1016.75
2018-01-23T11:16:09.733Z,1016.72
2018-01-23T11:17:09.705Z,1016.75
2018-01-23T11:18:09.688Z,1016.69
2018-01-23T11:19:09.650Z,1016.75
2018-01-23T11:20:09.622Z,1016.72
2018-01-23T11:21:09.601Z,1016.72
2018-01-23T11:22:09.568Z,1016.70
2018-01-23T11:23:09.537Z,1016.65
2018-01-23T11:24:09.510Z,1016.64
2018-01-23T11:25:09.480Z,1016.64
2018-01-23T11:26:09.453Z,1016.63
2018-01-23T11:27:09.426Z,1016.67
2018-01-23T11:28:09.400Z,1016.59
2018-01-23T11:29:09.374Z,1016.60
2018-01-23T11:30:09.336Z,1016.63
2018-01-23T11:31:09.315Z,1016.59
2018-01-23T11:32:09.285Z,1016.57
2018-01-23T11:33:09.260Z,1016.55
2018-01-23T11:34:09.231Z,1016.53
2018-01-23T11:35:09.208Z,1016.44
2018-01-23T11:36:09.176Z,1016.53
2018-01-23T11:37:09.148Z,1016.47
2018-01-23T11:38:09.122Z,1016.58
2018-01-23T11:39:09.093Z,1016.48
2018-01-23T11:40:09.059Z,1016.46
2018-01-23T11:41:09.865Z,1016.54
2018-01-23T11:42:09.004Z,1016.44
2018-01-23T11:43:08.974Z,1016.40
2018-01-23T11:44:08.954Z,1016.40
2018-01-23T11:45:08.918Z,1016.53
2018-01-23T11:46:08.889Z,1016.48
2018-01-23T11:47:08.867Z,1016.42
2018-01-23T11:48:08.838Z,1016.57
2018-01-23T11:49:08.837Z,1016.51
2018-01-23T11:50:10.733Z,1016.50
2018-01-23T11:51:08.756Z,1016.51
2018-01-23T11:52:08.729Z,1016.53
2018-01-23T11:53:08.696Z,1016.51
2018-01-23T11:54:08.668Z,1016.55
2018-01-23T11:55:08.642Z,1016.48
2018-01-23T11:56:08.611Z,1016.38
2018-01-23T11:57:08.586Z,1016.43
2018-01-23T11:58:08.640Z,1016.45
2018-01-23T11:59:10.274Z,1016.44
2018-01-23T12:00:08.502Z,1016.41
2018-01-23T12:01:08.475Z,1016.38
2018-01-23T12:02:08.445Z,1016.39
2018-01-23T12:03:08.551Z,1016.35
2018-01-23T12:04:08.462Z,1016.34
2018-01-23T12:05:08.359Z,1016.30